createdAt,value
2024-05-09T00:02:04.036Z,3.53
2024-05-09T00:04:34.385Z,4.73
2024-05-09T00:07:04.815Z,5.13
2024-05-09T00:09:37.796Z,4.60
2024-05-09T00:12:08.540Z,3.60
2024-05-09T00:14:39.074Z,4.23
2024-05-09T00:17:10.607Z,4.23
2024-05-09T00:19:40.994Z,4.17
2024-05-09T00:22:11.278Z,4.07
2024-05-09T00:24:44.236Z,4.20
2024-05-09T00:27:14.481Z,3.57
2024-05-09T00:29:44.771Z,4.17
2024-05-09T00:32:15.201Z,4.27
2024-05-09T00:34:45.533Z,4.17
2024-05-09T00:37:16.395Z,3.83
2024-05-09T00:39:49.261Z,3.30
2024-05-09T00:42:19.535Z,3.33
2024-05-09T00:44:49.786Z,3.53
2024-05-09T00:47:21.230Z,3.40
2024-05-09T00:49:52.210Z,3.60
2024-05-09T00:52:22.834Z,3.50
2024-05-09T00:54:56.926Z,3.83
2024-05-09T00:57:28.221Z,3.50
2024-05-09T00:59:59.258Z,3.73
2024-05-09T01:02:29.887Z,3.33
2024-05-09T01:05:00.542Z,3.17
2024-05-09T01:07:31.358Z,3.13
2024-05-09T01:10:07.033Z,3.47
2024-05-09T01:12:39.312Z,4.27
2024-05-09T01:15:10.065Z,3.97
2024-05-09T01:17:40.871Z,3.80
2024-05-09T01:20:19.798Z,3.87
2024-05-09T01:22:55.321Z,3.53
2024-05-09T01:25:28.566Z,3.30
2024-05-09T01:27:58.912Z,3.27
2024-05-09T01:30:34.675Z,3.20
2024-05-09T01:33:09.458Z,3.63
2024-05-09T01:35:42.777Z,3.77
2024-05-09T01:38:17.074Z,3.50
2024-05-09T01:40:51.362Z,3.93
2024-05-09T01:43:21.655Z,3.50
2024-05-09T01:45:51.935Z,3.10
2024-05-09T01:48:22.475Z,3.50
2024-05-09T01:50:52.830Z,3.53
2024-05-09T01:53:23.116Z,3.10
2024-05-09T01:55:56.032Z,2.57
2024-05-09T01:58:26.397Z,3.00
2024-05-09T02:00:56.759Z,3.50
2024-05-09T02:03:27.181Z,3.53
2024-05-09T02:05:57.651Z,2.67
2024-05-09T02:08:28.104Z,3.40
2024-05-09T02:11:01.139Z,3.63
2024-05-09T02:13:31.517Z,3.63
2024-05-09T02:16:01.965Z,4.07
2024-05-09T02:18:32.636Z,3.57
2024-05-09T02:21:03.222Z,3.43
2024-05-09T02:23:33.800Z,3.57
2024-05-09T02:26:07.109Z,3.37
2024-05-09T02:28:37.411Z,3.30
2024-05-09T02:31:07.866Z,3.63
2024-05-09T02:33:38.301Z,3.00
2024-05-09T02:36:07.125Z,2.90
2024-05-09T02:38:37.494Z,3.57
2024-05-09T02:41:09.322Z,2.77
2024-05-09T02:43:39.586Z,3.17
2024-05-09T02:46:07.569Z,3.20
2024-05-09T02:48:37.938Z,3.17
2024-05-09T02:51:06.070Z,3.33
2024-05-09T02:53:36.511Z,3.30
2024-05-09T02:56:07.510Z,3.67
2024-05-09T02:58:37.853Z,3.37
2024-05-09T03:01:05.546Z,3.60
2024-05-09T03:03:36.063Z,3.17
2024-05-09T03:06:04.151Z,3.67
2024-05-09T03:08:34.621Z,3.03
2024-05-09T03:11:02.488Z,3.70
2024-05-09T03:13:35.373Z,3.80
2024-05-09T03:16:03.058Z,3.70
2024-05-09T03:18:34.658Z,3.90
2024-05-09T03:21:02.539Z,3.77
2024-05-09T03:23:32.973Z,3.50
2024-05-09T03:26:00.737Z,3.97
2024-05-09T03:28:31.157Z,4.00
2024-05-09T03:31:01.525Z,3.57
2024-05-09T03:33:32.267Z,3.90
2024-05-09T03:36:00.340Z,3.83
2024-05-09T03:38:30.793Z,4.57
2024-05-09T03:41:01.227Z,4.80
2024-05-09T03:43:31.560Z,4.90
2024-05-09T03:46:04.434Z,4.83
2024-05-09T03:48:35.391Z,4.90
2024-05-09T03:51:05.882Z,5.00
2024-05-09T03:53:33.855Z,4.43
2024-05-09T03:56:05.251Z,5.77
2024-05-09T03:58:33.014Z,5.50
2024-05-09T04:01:06.411Z,4.70
2024-05-09T04:03:34.747Z,4.90
2024-05-09T04:06:05.162Z,4.87
2024-05-09T04:08:33.032Z,5.70
2024-05-09T04:11:04.559Z,5.27
2024-05-09T04:13:34.941Z,5.07
2024-05-09T04:16:06.831Z,4.77
2024-05-09T04:18:37.169Z,5.10
2024-05-09T04:21:05.572Z,5.37
2024-05-09T04:23:36.048Z,5.13
2024-05-09T04:26:04.548Z,4.03
2024-05-09T04:28:34.888Z,4.83
2024-05-09T04:31:05.334Z,5.60
2024-05-09T04:33:35.713Z,4.63
2024-05-09T04:36:03.855Z,5.20
2024-05-09T04:38:34.236Z,5.53
2024-05-09T04:41:02.109Z,5.67
2024-05-09T04:43:33.309Z,4.80
2024-05-09T04:46:00.965Z,4.70
2024-05-09T04:48:34.013Z,5.73
2024-05-09T04:51:02.239Z,5.27
2024-05-09T04:53:32.580Z,5.10
2024-05-09T04:56:00.372Z,5.27
2024-05-09T04:58:30.694Z,5.67
2024-05-09T05:00:58.433Z,6.33
2024-05-09T05:03:28.960Z,5.33
2024-05-09T05:05:59.599Z,5.07
2024-05-09T05:08:29.961Z,5.37
2024-05-09T05:10:57.687Z,5.40
2024-05-09T05:13:28.067Z,5.43
2024-05-09T05:15:57.786Z,4.77
2024-05-09T05:18:29.736Z,4.83
2024-05-09T05:21:00.087Z,4.57
2024-05-09T05:23:30.482Z,4.70
2024-05-09T05:25:58.249Z,4.77
2024-05-09T05:28:28.515Z,4.57
2024-05-09T05:30:56.221Z,5.30
2024-05-09T05:33:26.748Z,5.83
2024-05-09T05:35:54.591Z,5.20
2024-05-09T05:38:28.582Z,5.73
2024-05-09T05:40:56.727Z,5.43
2024-05-09T05:43:27.232Z,6.20
2024-05-09T05:45:54.981Z,5.50
2024-05-09T05:48:25.351Z,6.47
2024-05-09T05:50:53.459Z,6.67
2024-05-09T05:53:23.938Z,7.00
2024-05-09T05:55:54.284Z,7.73
2024-05-09T05:58:24.561Z,6.43
2024-05-09T06:00:53.701Z,8.30
2024-05-09T06:03:24.241Z,7.47
2024-05-09T06:05:51.992Z,7.33
2024-05-09T06:08:23.721Z,7.70
2024-05-09T06:10:54.929Z,6.93
2024-05-09T06:13:25.221Z,7.67
2024-05-09T06:15:52.928Z,8.20
2024-05-09T06:18:23.470Z,8.03
2024-05-09T06:20:52.680Z,7.43
2024-05-09T06:23:23.136Z,6.77
2024-05-09T06:25:50.956Z,7.90
2024-05-09T06:28:23.921Z,7.60
2024-05-09T06:30:51.576Z,7.50
2024-05-09T06:33:21.940Z,7.93
2024-05-09T06:35:49.877Z,7.20
2024-05-09T06:38:20.392Z,7.23
2024-05-09T06:40:48.103Z,7.80
2024-05-09T06:43:19.779Z,6.37
2024-05-09T06:45:52.763Z,6.33
2024-05-09T06:48:23.709Z,6.20
2024-05-09T06:50:51.654Z,6.17
2024-05-09T06:53:24.702Z,5.63
2024-05-09T06:55:53.083Z,6.90
2024-05-09T06:58:23.578Z,6.03
2024-05-09T07:00:53.964Z,6.70
2024-05-09T07:03:24.422Z,6.23
2024-05-09T07:05:52.236Z,7.00
2024-05-09T07:08:22.646Z,7.00
2024-05-09T07:10:50.589Z,7.28
2024-05-09T07:13:21.011Z,6.93
2024-05-09T07:15:48.834Z,7.50
2024-05-09T07:18:22.060Z,7.90
2024-05-09T07:20:50.644Z,7.83
2024-05-09T07:23:21.545Z,7.90
2024-05-09T07:25:49.611Z,7.60
2024-05-09T07:28:20.703Z,7.00
2024-05-09T07:30:48.533Z,6.77
2024-05-09T07:33:23.928Z,7.43
2024-05-09T07:35:52.698Z,6.60
2024-05-09T07:38:23.349Z,6.47
2024-05-09T07:40:51.213Z,6.30
2024-05-09T07:43:21.580Z,6.97
2024-05-09T07:45:53.653Z,6.37
2024-05-09T07:50:01.142Z,5.97
2024-05-09T07:53:53.417Z,6.77
2024-05-09T07:56:24.523Z,7.00
2024-05-09T07:58:56.366Z,6.10
2024-05-09T08:01:26.632Z,5.67
2024-05-09T08:04:00.216Z,6.00
2024-05-09T08:06:30.670Z,5.53
2024-05-09T08:09:02.805Z,5.63
2024-05-09T08:11:37.031Z,6.00
2024-05-09T08:14:05.179Z,5.63
2024-05-09T08:16:35.466Z,4.28
2024-05-09T08:19:05.890Z,5.00
2024-05-09T08:21:36.308Z,4.35
2024-05-09T08:24:04.839Z,4.20
2024-05-09T08:26:35.495Z,4.28
2024-05-09T08:29:03.220Z,4.40
2024-05-09T08:31:33.550Z,5.00
2024-05-09T08:34:01.570Z,4.63
2024-05-09T08:36:34.647Z,4.95
2024-05-09T08:39:02.328Z,4.53
2024-05-09T08:41:34.018Z,5.20
2024-05-09T08:44:02.640Z,5.32
2024-05-09T08:46:35.206Z,5.25
2024-05-09T08:49:04.043Z,5.53
2024-05-09T08:51:37.789Z,5.03
2024-05-09T08:54:05.479Z,4.93
2024-05-09T08:56:39.080Z,5.10
2024-05-09T08:59:13.505Z,4.95
2024-05-09T09:01:44.617Z,5.45
2024-05-09T09:04:13.900Z,6.00
2024-05-09T09:06:47.190Z,5.50
2024-05-09T09:09:15.147Z,5.43
2024-05-09T09:11:45.579Z,4.65
2024-05-09T09:14:14.815Z,5.47
2024-05-09T09:16:45.987Z,5.10
2024-05-09T09:19:14.746Z,5.40
2024-05-09T09:21:48.630Z,5.03
2024-05-09T09:24:16.476Z,5.40
2024-05-09T09:26:48.888Z,5.57
2024-05-09T09:29:20.158Z,4.80
2024-05-09T09:32:00.813Z,5.13
2024-05-09T09:34:28.831Z,4.43
2024-05-09T09:37:07.044Z,5.47
2024-05-09T09:39:35.703Z,5.10
2024-05-09T09:42:07.159Z,4.60
2024-05-09T09:44:37.351Z,4.80
2024-05-09T09:47:10.943Z,4.40
2024-05-09T09:49:39.364Z,5.07
2024-05-09T09:52:13.037Z,5.00
2024-05-09T09:54:44.139Z,3.72
2024-05-09T09:57:14.486Z,5.15
2024-05-09T09:59:46.815Z,4.57
2024-05-09T10:02:17.445Z,4.85
2024-05-09T10:04:45.353Z,4.28
2024-05-09T10:07:20.397Z,5.25
2024-05-09T10:09:48.542Z,4.93
2024-05-09T10:12:18.916Z,4.65
2024-05-09T10:14:48.583Z,5.32
2024-05-09T10:17:19.299Z,4.60
2024-05-09T10:19:47.350Z,4.82
2024-05-09T10:22:29.831Z,4.70
2024-05-09T10:25:06.746Z,4.45
2024-05-09T10:27:37.184Z,4.93
2024-05-09T10:30:11.556Z,5.68
2024-05-09T10:32:47.388Z,4.95
2024-05-09T10:35:19.578Z,4.95
2024-05-09T10:37:53.417Z,4.65
2024-05-09T10:40:26.561Z,4.03
2024-05-09T10:43:05.754Z,4.35
2024-05-09T10:45:35.854Z,4.10
2024-05-09T10:48:06.534Z,4.15
2024-05-09T10:50:35.176Z,4.60
2024-05-09T10:53:08.293Z,4.18
2024-05-09T10:55:36.000Z,4.65
2024-05-09T10:58:06.423Z,4.03
2024-05-09T11:00:36.370Z,4.85
2024-05-09T11:03:07.840Z,4.82
2024-05-09T11:05:36.941Z,3.75
2024-05-09T11:08:10.721Z,4.45
2024-05-09T11:10:39.463Z,4.90
2024-05-09T11:13:09.952Z,5.18
2024-05-09T11:15:39.166Z,5.40
2024-05-09T11:18:09.637Z,5.38
2024-05-09T11:20:38.861Z,5.23
2024-05-09T11:23:13.572Z,4.80
2024-05-09T11:25:41.500Z,4.47
2024-05-09T11:28:11.902Z,4.93
2024-05-09T11:30:39.738Z,5.30
2024-05-09T11:33:13.350Z,5.03
2024-05-09T11:35:41.275Z,5.10
2024-05-09T11:38:16.357Z,4.63
2024-05-09T11:40:44.147Z,5.07
2024-05-09T11:43:14.509Z,5.07
2024-05-09T11:45:42.410Z,5.47
2024-05-09T11:48:13.066Z,5.40
2024-05-09T11:50:41.031Z,5.13
2024-05-09T11:53:14.568Z,5.30
2024-05-09T11:55:42.299Z,5.00
2024-05-09T11:58:14.825Z,5.63
2024-05-09T12:00:42.562Z,5.80
2024-05-09T12:03:12.960Z,5.50
2024-05-09T12:05:41.012Z,5.43
2024-05-09T12:08:14.871Z,4.93
2024-05-09T12:10:43.014Z,4.80
2024-05-09T12:13:13.698Z,5.67
2024-05-09T12:15:42.547Z,5.87
2024-05-09T12:18:13.133Z,6.53
2024-05-09T12:20:40.909Z,6.37
2024-05-09T12:23:14.490Z,5.30
2024-05-09T12:25:42.247Z,5.70
2024-05-09T12:28:12.613Z,5.90
2024-05-09T12:30:41.556Z,5.40
2024-05-09T12:33:13.827Z,5.50
2024-05-09T12:35:44.601Z,5.10
2024-05-09T12:38:20.670Z,5.23
2024-05-09T12:40:48.490Z,5.13
2024-05-09T12:43:19.913Z,5.83
2024-05-09T12:45:47.656Z,5.80
2024-05-09T12:48:18.268Z,6.70
2024-05-09T12:50:46.127Z,5.97
2024-05-09T12:53:19.171Z,5.93
2024-05-09T12:55:53.649Z,5.83
2024-05-09T12:58:27.753Z,6.30
2024-05-09T13:00:55.643Z,5.70
2024-05-09T13:03:26.363Z,6.20
2024-05-09T13:05:54.879Z,5.47
2024-05-09T13:08:27.978Z,5.13
2024-05-09T13:10:55.896Z,4.83
2024-05-09T13:13:26.864Z,5.07
2024-05-09T13:15:56.272Z,6.20
2024-05-09T13:18:27.028Z,5.93
2024-05-09T13:20:55.078Z,6.53
2024-05-09T13:23:28.244Z,6.80
2024-05-09T13:25:55.997Z,6.27
2024-05-09T13:28:26.465Z,5.90
2024-05-09T13:30:54.319Z,5.60
2024-05-09T13:33:24.985Z,5.13
2024-05-09T13:35:53.144Z,6.03
2024-05-09T13:38:24.942Z,5.23
2024-05-09T13:40:55.327Z,5.33
2024-05-09T13:43:25.888Z,5.43
2024-05-09T13:45:55.602Z,4.57
2024-05-09T13:48:26.233Z,5.73
2024-05-09T13:50:54.052Z,5.47
2024-05-09T13:53:25.253Z,5.17
2024-05-09T13:55:55.702Z,5.50
2024-05-09T13:58:26.651Z,5.57
2024-05-09T14:00:55.243Z,5.47
2024-05-09T14:03:27.107Z,8.33
2024-05-09T14:05:55.291Z,7.13
2024-05-09T14:08:26.858Z,5.83
2024-05-09T14:10:57.618Z,7.27
2024-05-09T14:13:28.523Z,5.63
2024-05-09T14:15:56.865Z,6.20
2024-05-09T14:18:33.539Z,6.20
2024-05-09T14:21:02.582Z,5.90
2024-05-09T14:23:33.186Z,6.40
2024-05-09T14:26:06.927Z,5.33
2024-05-09T14:28:40.547Z,5.53
2024-05-09T14:31:08.903Z,6.60
2024-05-09T14:33:40.288Z,6.07
2024-05-09T14:36:10.073Z,5.87
2024-05-09T14:38:40.663Z,5.97
2024-05-09T14:41:13.416Z,6.17
2024-05-09T14:43:44.156Z,8.00
2024-05-09T14:46:12.300Z,7.20
2024-05-09T14:48:43.258Z,6.17
2024-05-09T14:51:11.837Z,6.07
2024-05-09T14:53:42.377Z,5.90
2024-05-09T14:56:12.874Z,6.60
2024-05-09T14:58:43.257Z,6.20
2024-05-09T15:01:11.100Z,7.43
2024-05-09T15:03:41.643Z,6.40
2024-05-09T15:06:09.661Z,6.93
2024-05-09T15:08:40.258Z,6.17
2024-05-09T15:11:08.158Z,5.63
2024-05-09T15:13:41.512Z,6.13
2024-05-09T15:16:09.292Z,6.43
2024-05-09T15:18:42.177Z,5.63
2024-05-09T15:21:11.390Z,5.90
2024-05-09T15:23:41.982Z,5.73
2024-05-09T15:26:10.124Z,6.33
2024-05-09T15:28:43.553Z,6.57
2024-05-09T15:31:11.524Z,6.30
2024-05-09T15:33:42.699Z,5.30
2024-05-09T15:36:10.855Z,5.83
2024-05-09T15:38:41.921Z,5.97
2024-05-09T15:41:09.860Z,6.67
2024-05-09T15:43:43.279Z,5.77
2024-05-09T15:46:11.506Z,5.63
2024-05-09T15:48:44.786Z,5.93
2024-05-09T15:51:13.219Z,7.10
2024-05-09T15:53:43.847Z,5.70
2024-05-09T15:56:12.045Z,5.73
2024-05-09T15:58:45.174Z,5.87
2024-05-09T16:01:14.960Z,5.73
2024-05-09T16:03:45.668Z,5.60
2024-05-09T16:06:13.869Z,5.80
2024-05-09T16:08:44.289Z,7.07
2024-05-09T16:11:13.198Z,6.07
2024-05-09T16:13:46.239Z,6.63
2024-05-09T16:16:14.279Z,6.07
2024-05-09T16:18:45.140Z,6.20
2024-05-09T16:21:12.908Z,9.10
2024-05-09T16:23:43.358Z,10.35
2024-05-09T16:26:11.333Z,8.98
2024-05-09T16:28:41.798Z,8.65
2024-05-09T16:31:12.258Z,8.52
2024-05-09T16:33:42.732Z,8.63
2024-05-09T16:36:10.627Z,9.03
2024-05-09T16:38:43.009Z,9.37
2024-05-09T16:41:10.776Z,9.67
2024-05-09T16:43:41.239Z,9.63
2024-05-09T16:46:11.897Z,9.57
2024-05-09T16:48:45.721Z,9.17
2024-05-09T16:51:13.700Z,9.90
2024-05-09T16:53:44.050Z,9.83
2024-05-09T16:56:12.601Z,10.07
2024-05-09T16:58:43.464Z,10.13
2024-05-09T17:01:13.962Z,10.40
2024-05-09T17:03:44.773Z,10.00
2024-05-09T17:06:13.371Z,10.03
2024-05-09T17:08:44.433Z,9.93
2024-05-09T17:11:13.302Z,10.97
2024-05-09T17:13:45.966Z,10.20
2024-05-09T17:16:21.026Z,10.00
2024-05-09T17:18:51.630Z,9.97
2024-05-09T17:21:20.403Z,8.93
2024-05-09T17:23:54.323Z,10.40
2024-05-09T17:26:22.277Z,8.77
2024-05-09T17:28:52.965Z,9.40
2024-05-09T17:31:23.577Z,9.23
2024-05-09T17:33:54.248Z,9.47
2024-05-09T17:36:22.148Z,10.43
2024-05-09T17:38:52.731Z,9.80
2024-05-09T17:41:20.495Z,10.57
2024-05-09T17:43:50.861Z,11.07
2024-05-09T17:46:21.349Z,11.40
2024-05-09T17:48:51.922Z,10.33
2024-05-09T17:51:22.602Z,10.53
2024-05-09T17:53:50.381Z,10.47
2024-05-09T17:56:20.926Z,10.77
2024-05-09T17:58:49.006Z,11.40
2024-05-09T18:01:19.674Z,10.57
2024-05-09T18:03:48.662Z,10.53
2024-05-09T18:06:21.778Z,10.03
2024-05-09T18:08:49.472Z,11.07
2024-05-09T18:11:20.118Z,9.47
2024-05-09T18:13:47.976Z,15.00
2024-05-09T18:16:18.599Z,12.17
2024-05-09T18:18:46.890Z,11.03
2024-05-09T18:21:17.315Z,10.17
2024-05-09T18:23:47.726Z,12.40
2024-05-09T18:26:18.073Z,10.73
2024-05-09T18:28:47.297Z,10.37
2024-05-09T18:31:18.283Z,10.33
2024-05-09T18:33:46.307Z,9.50
2024-05-09T18:36:17.137Z,9.23
2024-05-09T18:38:49.225Z,13.00
2024-05-09T18:41:20.631Z,12.63
2024-05-09T18:43:50.615Z,11.67
2024-05-09T18:46:21.445Z,9.13
2024-05-09T18:48:49.794Z,9.10
2024-05-09T18:51:21.078Z,10.77
2024-05-09T18:53:52.424Z,10.37
2024-05-09T18:56:22.848Z,10.13
2024-05-09T18:58:53.263Z,10.90
2024-05-09T19:01:21.212Z,9.77
2024-05-09T19:03:51.710Z,10.77
2024-05-09T19:06:23.841Z,10.30
2024-05-09T19:08:58.604Z,9.50
2024-05-09T19:11:26.469Z,9.67
2024-05-09T19:13:58.759Z,10.73
2024-05-09T19:16:26.603Z,16.23
2024-05-09T19:18:57.145Z,11.07
2024-05-09T19:21:24.895Z,9.90
2024-05-09T19:23:58.114Z,9.40
2024-05-09T19:26:25.975Z,9.10
2024-05-09T19:28:56.502Z,9.27
2024-05-09T19:31:24.551Z,9.37
2024-05-09T19:33:55.031Z,9.80
2024-05-09T19:36:22.874Z,9.37
2024-05-09T19:38:54.030Z,10.53
2024-05-09T19:41:24.561Z,9.60
2024-05-09T19:43:54.924Z,11.40
2024-05-09T19:46:23.669Z,15.00
2024-05-09T19:48:54.454Z,77.83
2024-05-09T19:51:22.337Z,44.13
2024-05-09T19:53:54.255Z,14.83
2024-05-09T19:56:24.599Z,11.80
2024-05-09T19:58:55.142Z,11.03
2024-05-09T20:01:23.018Z,10.73
2024-05-09T20:03:56.730Z,9.80
2024-05-09T20:06:26.311Z,20.83
2024-05-09T20:08:58.244Z,18.47
2024-05-09T20:11:28.750Z,10.37
2024-05-09T20:13:59.366Z,10.07
2024-05-09T20:16:27.142Z,9.27
2024-05-09T20:18:58.216Z,10.00
2024-05-09T20:21:25.994Z,9.90
2024-05-09T20:23:56.609Z,10.47
2024-05-09T20:26:24.486Z,11.07
2024-05-09T20:28:57.765Z,12.30
2024-05-09T20:31:25.564Z,11.83
2024-05-09T20:33:56.084Z,10.00
2024-05-09T20:36:23.873Z,11.17
2024-05-09T20:38:54.157Z,10.87
2024-05-09T20:41:21.948Z,11.10
2024-05-09T20:43:53.606Z,42.13
2024-05-09T20:46:24.107Z,19.50
2024-05-09T20:48:56.354Z,11.43
2024-05-09T20:51:24.278Z,12.30
2024-05-09T20:53:56.337Z,12.37
2024-05-09T20:56:24.748Z,11.80
2024-05-09T20:58:55.031Z,12.43
2024-05-09T21:01:25.543Z,11.30
2024-05-09T21:03:56.035Z,12.83
2024-05-09T21:06:24.276Z,12.97
2024-05-09T21:08:55.589Z,14.40
2024-05-09T21:11:25.068Z,12.60
2024-05-09T21:13:55.555Z,12.33
2024-05-09T21:16:26.203Z,11.53
2024-05-09T21:18:57.065Z,12.30
2024-05-09T21:21:25.051Z,10.87
2024-05-09T21:23:55.312Z,10.53
2024-05-09T21:26:23.851Z,12.27
2024-05-09T21:28:54.176Z,13.13
2024-05-09T21:31:21.951Z,13.47
2024-05-09T21:33:55.285Z,12.10
2024-05-09T21:36:23.169Z,12.57
2024-05-09T21:38:53.508Z,13.67
2024-05-09T21:41:21.402Z,14.43
2024-05-09T21:43:51.695Z,12.97
2024-05-09T21:46:19.485Z,12.03
2024-05-09T21:48:49.913Z,13.13
2024-05-09T21:51:20.295Z,12.97
2024-05-09T21:53:51.546Z,12.37
2024-05-09T21:56:19.241Z,11.73
2024-05-09T21:58:49.500Z,12.80
2024-05-09T22:01:17.450Z,11.20
2024-05-09T22:03:47.965Z,12.43
2024-05-09T22:06:15.818Z,12.00
2024-05-09T22:08:48.705Z,10.70
2024-05-09T22:11:16.421Z,10.77
2024-05-09T22:13:46.827Z,11.37
2024-05-09T22:16:15.563Z,9.77
2024-05-09T22:18:46.162Z,10.77
2024-05-09T22:21:13.932Z,10.47
2024-05-09T22:23:44.257Z,10.13
2024-05-09T22:26:14.593Z,9.83
2024-05-09T22:28:45.678Z,9.83
2024-05-09T22:31:13.413Z,9.70
2024-05-09T22:33:46.273Z,10.13
2024-05-09T22:36:15.243Z,10.13
2024-05-09T22:38:45.564Z,10.47
2024-05-09T22:41:15.909Z,10.37
2024-05-09T22:43:46.166Z,11.37
2024-05-09T22:46:14.023Z,10.47
2024-05-09T22:48:44.399Z,11.60
2024-05-09T22:51:13.078Z,9.90
2024-05-09T22:53:43.324Z,10.07
2024-05-09T22:56:12.045Z,11.53
2024-05-09T22:58:45.120Z,11.30
2024-05-09T23:01:15.311Z,12.17
2024-05-09T23:03:45.928Z,11.60
2024-05-09T23:06:14.103Z,12.27
2024-05-09T23:08:44.348Z,11.70
2024-05-09T23:11:12.165Z,11.30
2024-05-09T23:13:45.133Z,12.20
2024-05-09T23:16:13.084Z,12.73
2024-05-09T23:18:43.594Z,13.17
2024-05-09T23:21:11.358Z,13.07
2024-05-09T23:23:41.655Z,12.70
2024-05-09T23:26:09.382Z,12.90
2024-05-09T23:28:39.745Z,13.07
2024-05-09T23:31:10.048Z,12.40
2024-05-09T23:33:40.614Z,12.43
2024-05-09T23:36:08.467Z,12.60
2024-05-09T23:38:41.330Z,13.93
2024-05-09T23:41:09.259Z,12.30
2024-05-09T23:43:39.673Z,13.67
2024-05-09T23:46:11.263Z,11.97
2024-05-09T23:48:41.751Z,12.10
2024-05-09T23:51:09.554Z,12.77
2024-05-09T23:53:39.812Z,13.87
2024-05-09T23:56:08.073Z,14.03
2024-05-09T23:58:38.333Z,13.37
